Time;durP1;ratioP1;P1;durP2;ratioP2;P2;SDS_P1;SDS_P2;PMS_P1;PMS_P2;Temp;Humidity;BMP_temperature;BMP_pressure;BME280_temperature;BME280_humidity;BME280_pressure;Samples;Min_cycle;Max_cycle;Signal;HPM_P1;HPM_P2
2022/07/31 00:00:32;;;;;;;23.25;22.05;;;24.60;55.70;;;;;;5050233;28;20044;-77
2022/07/31 00:02:58;;;;;;;22.15;20.95;;;24.70;55.50;;;;;;5050904;28;20063;-77
2022/07/31 00:05:25;;;;;;;22.92;21.83;;;24.60;55.40;;;;;;5033740;28;20041;-77
2022/07/31 00:07:52;;;;;;;22.50;21.30;;;24.70;55.30;;;;;;5034189;28;20514;-77
2022/07/31 00:10:18;;;;;;;21.60;20.40;;;24.60;55.50;;;;;;5033736;28;20041;-77
2022/07/31 00:12:44;;;;;;;21.73;20.63;;;24.40;56.00;;;;;;5050506;28;20021;-77
2022/07/31 00:15:11;;;;;;;22.83;21.67;;;24.40;56.10;;;;;;5049747;28;20364;-77
2022/07/31 00:17:38;;;;;;;21.92;20.88;;;24.50;55.80;;;;;;5050518;28;20033;-77
2022/07/31 00:20:05;;;;;;;22.73;21.42;;;24.50;55.80;;;;;;5033541;28;20040;-77
2022/07/31 00:22:31;;;;;;;23.90;22.70;;;24.50;55.70;;;;;;5050225;28;20035;-77
2022/07/31 00:24:57;;;;;;;24.23;22.98;;;24.60;55.50;;;;;;5050102;28;20025;-77
2022/07/31 00:27:23;;;;;;;22.38;21.17;;;24.60;55.30;;;;;;5049872;28;20040;-77
2022/07/31 00:29:50;;;;;;;22.35;21.25;;;24.50;55.50;;;;;;5050117;28;20039;-77
2022/07/31 00:32:16;;;;;;;23.73;22.52;;;24.30;56.60;;;;;;5049785;28;20052;-77
2022/07/31 00:34:42;;;;;;;24.02;22.90;;;24.30;56.30;;;;;;5033453;28;20033;-78
2022/07/31 00:37:09;;;;;;;24.42;23.23;;;24.40;56.50;;;;;;5032851;28;20402;-77
2022/07/31 00:39:35;;;;;;;23.83;22.67;;;24.40;56.40;;;;;;5049610;28;20025;-77
2022/07/31 00:42:01;;;;;;;24.05;22.67;;;24.30;56.80;;;;;;5032989;28;20041;-77
2022/07/31 00:44:27;;;;;;;25.63;24.25;;;24.20;57.10;;;;;;5038361;28;20034;-77
2022/07/31 00:46:53;;;;;;;26.17;24.83;;;24.00;57.20;;;;;;5032356;28;20049;-77
2022/07/31 00:49:20;;;;;;;29.33;27.92;;;23.90;57.90;;;;;;5033004;28;20044;-77
2022/07/31 00:51:46;;;;;;;25.95;24.70;;;23.90;57.80;;;;;;5049923;28;20028;-78
2022/07/31 00:54:13;;;;;;;25.83;24.58;;;23.90;57.70;;;;;;5033285;28;20037;-77
2022/07/31 00:56:39;;;;;;;26.83;25.52;;;23.90;57.90;;;;;;5032976;28;20037;-77
2022/07/31 00:59:05;;;;;;;25.73;24.52;;;23.70;58.40;;;;;;5049795;28;20032;-77
2022/07/31 01:01:31;;;;;;;26.15;24.80;;;23.70;58.30;;;;;;5050125;28;20041;-77
2022/07/31 01:03:57;;;;;;;25.45;24.23;;;23.70;58.60;;;;;;5033217;28;20041;-77
2022/07/31 01:06:23;;;;;;;26.88;25.58;;;23.70;58.30;;;;;;5032695;28;20395;-77
2022/07/31 01:08:49;;;;;;;27.95;26.45;;;23.80;58.20;;;;;;5032469;28;20033;-77
2022/07/31 01:11:32;;;;;;;28.30;26.95;;;23.90;58.10;;;;;;5032712;28;20489;-79
2022/07/31 01:13:59;;;;;;;26.23;24.88;;;24.00;57.50;;;;;;5049238;28;20017;-79
2022/07/31 01:16:27;;;;;;;27.80;26.48;;;23.90;57.90;;;;;;5048865;28;20037;-79
2022/07/31 01:18:55;;;;;;;29.60;28.00;;;23.80;58.10;;;;;;5049462;28;20028;-78
2022/07/31 01:21:28;;;;;;;28.65;27.25;;;23.60;58.40;;;;;;5049176;28;20032;-79
2022/07/31 01:24:09;;;;;;;27.00;25.70;;;23.60;58.90;;;;;;5048889;28;20016;-79
2022/07/31 01:26:55;;;;;;;;;;;23.50;59.30;;;;;;5050859;28;20028;-79
2022/07/31 01:29:29;;;;;;;24.17;22.95;;;23.40;59.00;;;;;;5050118;28;19909;-79
2022/07/31 01:32:24;;;;;;;27.58;26.05;;;23.30;59.30;;;;;;5048639;28;20025;-80
2022/07/31 01:35:12;;;;;;;25.83;24.55;;;23.30;59.40;;;;;;5052716;28;20017;-79
2022/07/31 01:37:55;;;;;;;31.83;30.27;;;23.10;60.40;;;;;;5035876;28;20041;-79
2022/07/31 01:40:25;;;;;;;26.98;25.58;;;23.10;60.00;;;;;;5033090;28;20357;-77
2022/07/31 01:42:55;;;;;;;27.15;25.55;;;23.10;60.70;;;;;;5016582;28;20029;-79
2022/07/31 01:45:21;;;;;;;34.53;32.78;;;23.10;60.70;;;;;;5030711;28;20037;-79
2022/07/31 01:47:48;;;;;;;35.67;33.95;;;22.90;61.10;;;;;;5016412;28;20388;-79
2022/07/31 01:50:14;;;;;;;38.22;36.42;;;22.90;61.30;;;;;;5016698;28;20034;-79
2022/07/31 01:52:40;;;;;;;33.35;31.50;;;22.90;60.80;;;;;;5016254;28;20029;-79
2022/07/31 01:55:07;;;;;;;30.33;28.88;;;22.80;61.80;;;;;;5016326;28;20472;-79
2022/07/31 01:57:33;;;;;;;29.67;28.27;;;22.70;62.60;;;;;;5000510;28;20316;-79
2022/07/31 02:00:00;;;;;;;27.90;26.42;;;22.60;63.00;;;;;;5016376;28;20037;-79
2022/07/31 02:02:27;;;;;;;27.98;26.60;;;22.50;63.00;;;;;;5015720;28;20056;-79
2022/07/31 02:04:53;;;;;;;29.95;28.48;;;22.50;63.00;;;;;;5032774;28;20029;-79
2022/07/31 02:07:19;;;;;;;29.73;28.23;;;22.30;63.60;;;;;;5015812;28;20484;-79
2022/07/31 02:09:45;;;;;;;29.23;27.73;;;22.20;64.90;;;;;;5016237;28;20434;-79
2022/07/31 02:12:11;;;;;;;23.10;21.95;;;22.10;65.40;;;;;;5016128;28;20387;-79
2022/07/31 02:14:39;;;;;;;32.78;30.77;;;21.90;66.40;;;;;;5015792;28;20025;-79
2022/07/31 02:17:06;;;;;;;37.13;35.28;;;21.80;67.10;;;;;;5032265;28;20041;-79
2022/07/31 02:19:33;;;;;;;41.45;39.35;;;21.80;67.10;;;;;;5032699;28;20038;-79
2022/07/31 02:21:59;;;;;;;34.35;32.65;;;21.80;67.30;;;;;;5015869;28;20491;-79
2022/07/31 02:24:25;;;;;;;41.47;39.40;;;21.90;67.00;;;;;;5015749;28;20494;-79
2022/07/31 02:26:51;;;;;;;39.45;37.47;;;21.90;66.90;;;;;;5015563;28;20095;-79
2022/07/31 02:29:19;;;;;;;24.65;23.48;;;21.90;66.90;;;;;;5015306;28;20048;-79
2022/07/31 02:31:47;;;;;;;25.50;24.20;;;22.00;66.60;;;;;;5015484;28;20033;-79
2022/07/31 02:34:13;;;;;;;28.52;26.92;;;22.20;66.20;;;;;;5015884;28;20033;-79
2022/07/31 02:36:39;;;;;;;33.60;31.85;;;22.10;66.20;;;;;;5031621;28;20025;-79
2022/07/31 02:39:05;;;;;;;38.58;36.47;;;22.00;66.70;;;;;;5024988;28;20037;-79
2022/07/31 02:41:31;;;;;;;32.47;30.83;;;21.80;67.10;;;;;;5035543;28;20044;-79
2022/07/31 02:43:57;;;;;;;38.13;36.15;;;21.80;67.50;;;;;;5045275;28;20040;-79
2022/07/31 02:46:23;;;;;;;37.67;35.78;;;21.80;67.60;;;;;;5029396;28;20041;-79
2022/07/31 02:48:49;;;;;;;35.47;33.67;;;21.90;67.30;;;;;;5035561;28;20048;-79
2022/07/31 02:51:15;;;;;;;37.33;35.42;;;21.80;67.80;;;;;;5034513;28;20037;-79
2022/07/31 02:53:42;;;;;;;38.80;36.90;;;21.60;69.00;;;;;;5051807;28;20021;-79
2022/07/31 02:56:08;;;;;;;38.65;36.60;;;21.50;69.10;;;;;;5051628;28;20132;-79
2022/07/31 02:58:38;;;;;;;41.55;39.30;;;21.60;68.40;;;;;;5051617;28;20029;-79
2022/07/31 03:01:05;;;;;;;41.85;39.67;;;21.50;69.20;;;;;;5050850;28;20047;-79
2022/07/31 03:03:31;;;;;;;36.20;34.40;;;21.50;69.70;;;;;;5051167;28;20380;-79
2022/07/31 03:05:57;;;;;;;34.22;32.42;;;21.50;69.20;;;;;;5051300;28;20025;-79
2022/07/31 03:08:23;;;;;;;32.78;31.08;;;21.50;69.60;;;;;;5034763;28;20040;-79
2022/07/31 03:10:49;;;;;;;33.92;32.15;;;21.40;69.50;;;;;;5051487;28;20032;-79
2022/07/31 03:13:16;;;;;;;33.35;31.58;;;21.30;70.70;;;;;;5051549;28;20025;-79
2022/07/31 03:15:42;;;;;;;33.50;31.80;;;21.20;70.70;;;;;;5050728;28;20037;-79
2022/07/31 03:18:10;;;;;;;33.03;31.35;;;21.20;70.80;;;;;;5034188;28;20041;-79
2022/07/31 03:20:37;;;;;;;27.58;26.00;;;21.30;70.40;;;;;;5034679;28;20044;-79
2022/07/31 03:23:04;;;;;;;29.10;27.52;;;21.40;69.90;;;;;;5051469;28;20392;-79
2022/07/31 03:25:31;;;;;;;28.42;26.92;;;21.30;70.30;;;;;;5034780;28;20526;-79
2022/07/31 03:27:59;;;;;;;29.08;27.48;;;21.40;69.90;;;;;;5051264;28;20053;-79
2022/07/31 03:30:25;;;;;;;28.95;27.42;;;21.40;70.20;;;;;;5050686;28;20502;-79
2022/07/31 03:32:52;;;;;;;28.05;26.40;;;21.30;70.30;;;;;;5051989;28;20033;-79
2022/07/31 03:35:18;;;;;;;27.63;26.13;;;21.10;70.80;;;;;;5050706;28;20419;-79
2022/07/31 03:37:44;;;;;;;29.10;27.60;;;21.10;71.40;;;;;;5051161;28;20041;-79
2022/07/31 03:40:11;;;;;;;28.92;27.45;;;21.20;70.60;;;;;;5034110;28;20041;-79
2022/07/31 03:42:37;;;;;;;32.10;30.30;;;21.20;71.10;;;;;;5050821;28;20064;-79
2022/07/31 03:45:04;;;;;;;30.63;28.92;;;21.30;70.30;;;;;;5021438;28;20029;-79
2022/07/31 03:47:30;;;;;;;31.80;30.10;;;21.40;69.90;;;;;;5050462;28;20044;-78
2022/07/31 03:49:56;;;;;;;31.85;29.88;;;21.60;69.30;;;;;;5034232;28;20036;-79
2022/07/31 03:52:23;;;;;;;31.77;30.05;;;21.60;69.50;;;;;;5034360;28;20037;-79
2022/07/31 03:54:49;;;;;;;32.90;30.85;;;21.60;69.10;;;;;;5050877;28;20090;-78
2022/07/31 03:57:15;;;;;;;35.10;33.20;;;21.60;69.20;;;;;;5033626;28;20041;-79
2022/07/31 03:59:42;;;;;;;31.23;29.42;;;21.60;68.90;;;;;;5034386;28;20044;-79
2022/07/31 04:02:09;;;;;;;31.83;30.02;;;21.60;69.30;;;;;;5050972;28;20048;-79
2022/07/31 04:04:36;;;;;;;30.95;29.35;;;21.50;69.70;;;;;;5050545;28;20025;-79
2022/07/31 04:07:03;;;;;;;31.23;29.52;;;21.50;69.90;;;;;;5050762;28;20029;-79
2022/07/31 04:09:30;;;;;;;33.10;31.23;;;21.30;70.60;;;;;;5034293;28;20451;-79
2022/07/31 04:11:56;;;;;;;30.67;29.05;;;21.30;70.60;;;;;;5050579;28;20041;-79
2022/07/31 04:14:22;;;;;;;34.28;32.33;;;21.30;70.60;;;;;;5050455;28;20474;-79
2022/07/31 04:16:48;;;;;;;32.70;30.98;;;21.00;71.80;;;;;;5049381;28;20048;-79
2022/07/31 04:19:14;;;;;;;32.88;30.90;;;21.10;71.30;;;;;;5048342;28;20029;-79
2022/07/31 04:21:40;;;;;;;33.78;31.85;;;21.10;71.50;;;;;;5033809;28;20071;-79
2022/07/31 04:24:07;;;;;;;32.47;30.77;;;21.10;71.50;;;;;;5050291;28;20021;-79
2022/07/31 04:26:33;;;;;;;35.28;33.35;;;20.80;72.90;;;;;;5050076;28;20029;-79
2022/07/31 04:28:59;;;;;;;36.55;34.55;;;20.70;73.40;;;;;;5050217;28;20032;-79
2022/07/31 04:31:25;;;;;;;31.95;30.20;;;20.70;73.80;;;;;;5048905;28;20033;-79
2022/07/31 04:33:51;;;;;;;35.28;33.28;;;20.70;73.70;;;;;;5033760;28;20084;-79
2022/07/31 04:36:17;;;;;;;35.30;33.35;;;20.70;74.00;;;;;;5033740;28;20032;-79
2022/07/31 04:38:43;;;;;;;32.97;31.02;;;20.60;73.90;;;;;;5049870;28;20033;-79
2022/07/31 04:41:09;;;;;;;35.05;33.13;;;20.60;73.90;;;;;;5049782;28;20028;-79
2022/07/31 04:43:35;;;;;;;33.92;31.92;;;20.60;74.10;;;;;;5028741;28;20037;-79
2022/07/31 04:46:02;;;;;;;33.22;31.25;;;20.50;74.60;;;;;;5024879;28;20399;-79
2022/07/31 04:48:28;;;;;;;31.17;29.38;;;20.50;74.90;;;;;;5049713;28;20480;-79
2022/07/31 04:50:54;;;;;;;33.97;32.08;;;20.50;74.30;;;;;;5049927;28;20052;-79
2022/07/31 04:53:20;;;;;;;29.23;27.63;;;20.70;74.00;;;;;;5050009;28;20037;-79
2022/07/31 04:56:32;;;;;;;31.60;29.77;;;20.90;73.10;;;;;;5049931;28;20044;-79
2022/07/31 04:58:33;;;;;;;32.50;30.80;;;20.90;73.00;;;;;;5049683;28;20498;-79
2022/07/31 05:01:01;;;;;;;35.08;32.88;;;21.00;72.50;;;;;;5048985;28;20044;-79
2022/07/31 05:03:27;;;;;;;29.55;27.77;;;20.80;73.40;;;;;;5049490;28;20069;-79
2022/07/31 05:05:53;;;;;;;32.67;30.88;;;20.80;73.00;;;;;;5049721;28;20025;-79
2022/07/31 05:08:19;;;;;;;30.50;28.90;;;21.00;72.30;;;;;;5049025;28;20036;-79
2022/07/31 05:13:29;;;;;;;31.08;29.38;;;21.10;72.00;;;;;;5052914;28;20040;-79
2022/07/31 05:15:56;;;;;;;31.30;29.50;;;21.10;71.80;;;;;;5048670;28;20471;-79
2022/07/31 05:18:22;;;;;;;33.45;31.65;;;21.10;72.10;;;;;;5050709;28;20033;-79
2022/07/31 05:20:48;;;;;;;31.40;29.60;;;21.10;72.20;;;;;;5050775;28;20392;-79
2022/07/31 05:23:14;;;;;;;31.40;29.40;;;21.00;72.90;;;;;;5049589;28;20400;-79
2022/07/31 05:25:40;;;;;;;32.83;31.02;;;20.90;73.10;;;;;;5050713;28;20036;-79
2022/07/31 05:28:07;;;;;;;31.45;29.65;;;20.70;74.00;;;;;;5049604;28;20033;-79
2022/07/31 05:30:33;;;;;;;29.65;27.98;;;20.80;74.10;;;;;;5031994;28;20033;-79
2022/07/31 05:32:59;;;;;;;30.10;28.30;;;20.90;73.80;;;;;;5049413;28;20040;-79
2022/07/31 05:35:25;;;;;;;34.85;32.92;;;21.10;73.30;;;;;;5032592;28;20476;-79
2022/07/31 05:37:51;;;;;;;47.97;45.38;;;21.30;72.70;;;;;;5032240;28;20041;-79
2022/07/31 05:40:17;;;;;;;69.55;65.95;;;21.50;72.00;;;;;;5049270;28;20365;-79
2022/07/31 05:42:43;;;;;;;78.68;74.63;;;21.60;71.30;;;;;;5032532;28;20045;-79
2022/07/31 05:45:10;;;;;;;86.03;81.68;;;21.80;70.90;;;;;;5019634;28;20388;-79
2022/07/31 05:47:36;;;;;;;90.63;85.95;;;22.00;70.10;;;;;;5049537;28;20124;-79
2022/07/31 05:50:03;;;;;;;93.53;88.43;;;21.80;70.40;;;;;;5032455;28;20487;-79
2022/07/31 05:52:30;;;;;;;95.78;90.70;;;22.00;70.50;;;;;;5032376;28;20052;-79
2022/07/31 05:54:56;;;;;;;72.72;68.93;;;22.10;69.70;;;;;;5032699;28;20045;-79
2022/07/31 05:57:22;;;;;;;63.90;60.67;;;22.20;69.60;;;;;;5049229;28;20028;-79
2022/07/31 05:59:48;;;;;;;69.25;65.55;;;22.50;68.70;;;;;;5048921;28;20509;-78
2022/07/31 06:02:14;;;;;;;74.60;70.63;;;22.70;67.70;;;;;;5048747;28;20041;-79
2022/07/31 06:04:40;;;;;;;90.70;86.25;;;22.80;67.50;;;;;;5032234;28;20399;-78
2022/07/31 06:07:06;;;;;;;78.90;74.90;;;22.70;67.10;;;;;;5049104;28;20033;-78
2022/07/31 06:09:33;;;;;;;82.53;78.43;;;22.70;67.50;;;;;;5049228;28;20379;-78
2022/07/31 06:11:59;;;;;;;92.18;87.57;;;22.80;66.80;;;;;;5048814;28;20081;-78
2022/07/31 06:14:25;;;;;;;92.35;87.65;;;22.80;66.70;;;;;;5049119;28;20033;-78
2022/07/31 06:16:52;;;;;;;82.22;78.03;;;22.60;67.30;;;;;;5031838;28;20395;-79
2022/07/31 06:19:19;;;;;;;88.95;84.55;;;22.70;67.20;;;;;;5033679;28;20036;-79
2022/07/31 06:21:45;;;;;;;89.00;84.50;;;22.80;66.70;;;;;;5052664;28;20459;-78
2022/07/31 06:24:11;;;;;;;89.53;85.05;;;22.90;66.40;;;;;;5052692;28;20391;-78
2022/07/31 06:26:37;;;;;;;90.82;86.32;;;22.90;66.50;;;;;;5050953;28;20029;-78
2022/07/31 06:29:03;;;;;;;92.20;87.53;;;22.90;66.60;;;;;;5053657;28;20029;-78
2022/07/31 06:31:30;;;;;;;98.13;93.15;;;23.00;66.10;;;;;;5033626;28;20033;-79
2022/07/31 06:33:56;;;;;;;92.53;87.88;;;23.10;65.50;;;;;;5053425;28;20131;-79
2022/07/31 06:36:22;;;;;;;91.70;87.10;;;23.00;65.90;;;;;;5053491;28;20037;-78
2022/07/31 06:38:48;;;;;;;97.90;93.03;;;23.00;66.40;;;;;;5053349;28;20036;-79
2022/07/31 06:41:56;;;;;;;95.90;91.18;;;23.00;66.00;;;;;;5051843;28;20021;-78
2022/07/31 06:44:03;;;;;;;89.60;85.05;;;23.10;65.80;;;;;;5045341;28;20053;-79
2022/07/31 06:46:29;;;;;;;89.20;84.38;;;23.10;65.60;;;;;;5049019;28;20044;-78
2022/07/31 06:48:55;;;;;;;90.53;85.75;;;22.90;66.70;;;;;;5051971;28;20028;-78
2022/07/31 06:51:21;;;;;;;91.22;86.72;;;23.10;65.70;;;;;;5035272;28;20037;-78
2022/07/31 06:53:48;;;;;;;94.82;90.05;;;23.00;66.00;;;;;;5052093;28;20475;-78
2022/07/31 06:56:14;;;;;;;86.95;82.63;;;23.10;65.60;;;;;;5034921;28;20071;-79
2022/07/31 06:58:40;;;;;;;67.10;63.40;;;23.20;65.30;;;;;;5051943;28;20421;-78
2022/07/31 07:01:06;;;;;;;62.67;59.38;;;23.40;64.80;;;;;;5051305;28;20032;-78
2022/07/31 07:03:32;;;;;;;58.45;55.20;;;23.50;64.20;;;;;;5051912;28;20052;-78
2022/07/31 07:05:58;;;;;;;56.92;53.85;;;23.60;63.60;;;;;;5051379;28;20037;-79
2022/07/31 07:08:24;;;;;;;52.90;50.00;;;23.60;63.50;;;;;;5051949;28;20460;-78
2022/07/31 07:10:50;;;;;;;52.75;49.95;;;23.70;63.30;;;;;;5034699;28;20037;-78
2022/07/31 07:13:16;;;;;;;47.80;45.25;;;23.80;63.10;;;;;;5051572;28;20033;-79
2022/07/31 07:15:43;;;;;;;45.15;42.75;;;24.00;62.60;;;;;;5034396;28;20033;-78
2022/07/31 07:18:09;;;;;;;45.67;43.08;;;24.20;61.90;;;;;;5051741;28;20047;-79
2022/07/31 07:20:35;;;;;;;58.90;55.70;;;24.20;61.80;;;;;;5034598;28;20510;-78
2022/07/31 07:23:01;;;;;;;43.85;41.35;;;24.20;61.80;;;;;;5051516;28;20040;-79
2022/07/31 07:25:27;;;;;;;44.40;42.05;;;24.30;61.50;;;;;;5050934;28;20400;-78
2022/07/31 07:27:55;;;;;;;41.58;39.28;;;24.20;61.40;;;;;;5051307;28;20036;-79
2022/07/31 07:30:22;;;;;;;42.53;40.28;;;24.20;61.40;;;;;;5033874;28;20044;-79
2022/07/31 07:32:48;;;;;;;40.40;38.28;;;24.40;61.60;;;;;;5051141;28;20387;-79
2022/07/31 07:35:14;;;;;;;40.28;38.10;;;24.70;60.60;;;;;;5052089;28;20036;-79
2022/07/31 07:37:40;;;;;;;45.42;43.10;;;24.90;59.70;;;;;;5052843;28;20045;-79
2022/07/31 07:40:07;;;;;;;38.13;36.13;;;25.00;60.00;;;;;;5033539;28;20349;-79
2022/07/31 07:42:33;;;;;;;38.03;35.97;;;25.20;58.70;;;;;;5050974;28;20036;-78
2022/07/31 07:44:59;;;;;;;28.67;26.98;;;25.20;58.60;;;;;;5038836;28;20040;-78
2022/07/31 07:47:25;;;;;;;27.27;25.80;;;25.40;58.10;;;;;;5051722;28;20427;-79
2022/07/31 07:49:51;;;;;;;26.88;25.48;;;25.50;57.70;;;;;;5050913;28;20032;-79
2022/07/31 07:52:17;;;;;;;26.88;25.17;;;25.60;57.90;;;;;;5050664;28;20379;-78
2022/07/31 07:54:43;;;;;;;29.98;28.15;;;25.70;57.40;;;;;;5050304;28;20033;-79
2022/07/31 07:57:15;;;;;;;34.90;33.03;;;25.80;57.10;;;;;;5034527;28;20052;-78
2022/07/31 07:59:41;;;;;;;42.13;39.83;;;26.00;57.30;;;;;;5052034;28;20041;-79
2022/07/31 08:02:07;;;;;;;35.88;33.97;;;26.20;56.50;;;;;;5051475;28;20287;-79
2022/07/31 08:04:33;;;;;;;40.38;38.25;;;26.00;56.50;;;;;;5034090;28;20048;-78
2022/07/31 08:06:59;;;;;;;36.63;34.72;;;26.20;56.40;;;;;;5051896;28;20021;-79
2022/07/31 08:09:25;;;;;;;40.47;38.15;;;26.20;56.10;;;;;;5033427;28;20036;-79
2022/07/31 08:11:51;;;;;;;40.60;38.50;;;26.30;56.10;;;;;;5050419;28;20069;-78
2022/07/31 08:14:17;;;;;;;45.22;42.70;;;26.50;55.50;;;;;;5034121;28;20511;-78
2022/07/31 08:16:43;;;;;;;54.13;51.42;;;26.70;55.00;;;;;;5049860;28;20029;-78
2022/07/31 08:19:09;;;;;;;48.08;45.67;;;26.60;55.10;;;;;;5050501;28;20498;-79
2022/07/31 08:21:36;;;;;;;38.55;36.55;;;26.70;55.30;;;;;;5051346;28;20033;-79
2022/07/31 08:24:02;;;;;;;37.75;35.80;;;27.10;54.70;;;;;;5033588;28;20044;-79
2022/07/31 08:27:22;;;;;;;34.17;32.40;;;27.30;53.50;;;;;;5050340;28;20032;-79
2022/07/31 08:29:14;;;;;;;40.83;38.67;;;27.30;53.40;;;;;;5050137;28;20391;-79
2022/07/31 08:31:40;;;;;;;46.33;44.03;;;27.20;53.40;;;;;;5033126;28;20029;-79
2022/07/31 08:34:06;;;;;;;34.45;32.45;;;27.40;53.40;;;;;;5049862;28;20396;-79
2022/07/31 08:36:32;;;;;;;37.17;35.22;;;27.40;53.00;;;;;;5049875;28;20028;-79
2022/07/31 08:38:58;;;;;;;35.47;33.58;;;27.00;53.80;;;;;;5032992;28;20047;-78
2022/07/31 08:41:25;;;;;;;42.03;39.92;;;27.10;53.90;;;;;;5049716;28;20021;-79
2022/07/31 08:43:51;;;;;;;47.53;45.05;;;27.50;53.90;;;;;;5042582;28;20044;-79
2022/07/31 08:46:17;;;;;;;42.58;40.28;;;28.00;53.30;;;;;;5027096;28;20041;-78
2022/07/31 08:48:43;;;;;;;45.13;42.75;;;28.50;51.00;;;;;;5049821;28;20042;-79
2022/07/31 08:51:10;;;;;;;40.08;37.97;;;28.70;51.00;;;;;;5032948;28;20040;-79
2022/07/31 08:53:36;;;;;;;44.38;42.17;;;29.10;49.80;;;;;;5032928;28;20411;-79
2022/07/31 08:56:04;;;;;;;50.80;48.25;;;29.30;49.80;;;;;;5033134;28;20475;-79
2022/07/31 08:58:30;;;;;;;45.53;43.33;;;29.60;49.40;;;;;;5049699;28;20032;-79
2022/07/31 09:00:56;;;;;;;40.78;38.47;;;29.70;47.60;;;;;;5049169;28;20048;-79
2022/07/31 09:03:22;;;;;;;38.45;36.55;;;29.30;48.70;;;;;;5033284;28;20488;-79
2022/07/31 09:05:48;;;;;;;44.97;42.60;;;29.20;48.70;;;;;;5049645;28;20029;-79
2022/07/31 09:08:14;;;;;;;40.55;38.58;;;29.00;49.30;;;;;;5050373;28;20032;-79
2022/07/31 09:10:41;;;;;;;43.00;40.83;;;28.90;49.30;;;;;;5049587;28;20415;-79
2022/07/31 09:13:15;;;;;;;43.28;41.03;;;28.60;49.70;;;;;;5049780;28;20033;-79
2022/07/31 09:15:41;;;;;;;46.95;44.55;;;28.40;50.10;;;;;;5032507;28;20399;-79
2022/07/31 09:18:18;;;;;;;45.25;42.95;;;28.60;50.50;;;;;;5049744;28;20040;-78
2022/07/31 09:20:57;;;;;;;43.58;41.28;;;28.70;49.80;;;;;;5049496;28;20037;-79
2022/07/31 09:23:25;;;;;;;42.30;40.00;;;29.10;50.00;;;;;;5049359;28;20043;-79
2022/07/31 09:25:52;;;;;;;48.72;46.15;;;29.60;49.30;;;;;;5049719;28;20013;-79
2022/07/31 09:28:18;;;;;;;48.40;45.90;;;29.90;47.50;;;;;;5032707;28;20051;-79
2022/07/31 09:30:52;;;;;;;54.10;51.40;;;30.10;47.60;;;;;;5050074;28;20037;-79
2022/07/31 09:33:20;;;;;;;50.95;48.35;;;30.40;47.30;;;;;;5049525;28;20037;-79
2022/07/31 09:35:47;;;;;;;48.63;46.20;;;30.40;46.40;;;;;;5032618;28;20041;-79
2022/07/31 09:38:14;;;;;;;49.40;46.88;;;30.20;47.30;;;;;;5049078;28;20399;-79
2022/07/31 09:40:44;;;;;;;62.33;59.22;;;30.20;47.50;;;;;;5032975;28;20037;-79
2022/07/31 09:43:15;;;;;;;55.97;53.08;;;30.50;47.10;;;;;;5048414;28;20419;-79
2022/07/31 09:45:44;;;;;;;50.38;47.80;;;30.70;46.70;;;;;;5022087;28;20510;-79
2022/07/31 09:48:13;;;;;;;51.17;48.58;;;30.60;45.90;;;;;;5033142;28;20238;-79
2022/07/31 09:51:04;;;;;;;50.13;47.60;;;30.60;46.70;;;;;;5048934;28;20021;-79
2022/07/31 09:53:48;;;;;;;46.30;43.95;;;30.30;46.40;;;;;;5034979;28;20490;-79
2022/07/31 09:56:15;;;;;;;47.58;45.17;;;30.50;46.70;;;;;;5053204;28;20037;-79
2022/07/31 09:58:41;;;;;;;43.42;41.15;;;30.40;46.70;;;;;;5053213;28;20033;-79
2022/07/31 10:01:11;;;;;;;49.00;46.40;;;29.80;47.30;;;;;;5035694;28;20025;-79
2022/07/31 10:03:38;;;;;;;48.93;46.27;;;29.70;48.20;;;;;;5053001;28;20037;-79
2022/07/31 10:06:10;;;;;;;50.25;47.72;;;30.00;47.20;;;;;;5052664;28;20271;-79
2022/07/31 10:08:36;;;;;;;54.08;51.28;;;30.30;47.20;;;;;;5036045;28;20045;-79
2022/07/31 10:11:03;;;;;;;61.65;58.45;;;30.50;46.70;;;;;;5052951;28;20025;-79
2022/07/31 10:13:31;;;;;;;55.95;53.20;;;30.70;46.40;;;;;;5052814;28;20037;-79
2022/07/31 10:15:58;;;;;;;48.00;45.60;;;31.00;45.40;;;;;;5052238;28;20029;-79
2022/07/31 10:18:24;;;;;;;55.58;52.78;;;30.80;45.40;;;;;;5035925;28;20041;-79
2022/07/31 10:20:51;;;;;;;51.28;48.67;;;30.60;46.00;;;;;;5035887;28;20041;-79
2022/07/31 10:23:21;;;;;;;51.65;49.10;;;30.80;45.80;;;;;;5052487;28;20037;-79
2022/07/31 10:25:49;;;;;;;48.45;46.03;;;31.10;44.80;;;;;;5036180;28;20029;-79
2022/07/31 10:28:15;;;;;;;52.45;49.35;;;30.80;44.80;;;;;;5036075;28;20040;-79
2022/07/31 10:30:42;;;;;;;73.35;69.65;;;30.70;45.80;;;;;;5051926;28;20033;-79
2022/07/31 10:33:08;;;;;;;54.35;51.63;;;31.10;44.90;;;;;;5052028;28;20025;-79
2022/07/31 10:35:51;;;;;;;59.28;56.22;;;31.40;43.60;;;;;;5035475;28;20391;-79
2022/07/31 10:38:18;;;;;;;56.90;54.15;;;31.50;44.20;;;;;;5049448;28;20037;-79
2022/07/31 10:40:51;;;;;;;63.78;60.60;;;31.70;43.50;;;;;;5032350;28;20049;-79
2022/07/31 10:43:35;;;;;;;65.70;62.30;;;32.00;43.20;;;;;;5002051;28;20053;-79
2022/07/31 10:46:01;;;;;;;62.88;59.58;;;32.20;42.30;;;;;;5036004;28;20052;-79
2022/07/31 10:48:27;;;;;;;51.55;49.05;;;32.20;42.30;;;;;;5035305;28;20048;-79
2022/07/31 10:51:04;;;;;;;58.33;55.33;;;32.00;42.10;;;;;;5035623;28;20029;-79
2022/07/31 10:53:31;;;;;;;64.45;61.15;;;31.70;43.20;;;;;;5035835;28;20033;-79
2022/07/31 10:56:04;;;;;;;59.42;56.42;;;31.90;43.10;;;;;;5018609;28;20049;-79
2022/07/31 10:58:30;;;;;;;54.05;51.38;;;32.00;42.50;;;;;;5035953;28;20044;-79
2022/07/31 11:01:07;;;;;;;58.60;55.63;;;32.00;42.10;;;;;;5034834;28;20037;-79
2022/07/31 11:03:43;;;;;;;54.83;52.03;;;31.60;43.00;;;;;;5035027;28;20048;-79
2022/07/31 11:06:09;;;;;;;49.90;47.40;;;31.70;42.70;;;;;;5034629;28;20025;-79
2022/07/31 11:08:42;;;;;;;65.88;62.67;;;31.80;42.40;;;;;;5035282;28;20375;-79
2022/07/31 11:11:08;;;;;;;52.42;49.72;;;31.80;42.40;;;;;;5034975;28;20103;-79
2022/07/31 11:13:48;;;;;;;69.28;65.32;;;31.90;42.30;;;;;;5035430;28;20044;-79
2022/07/31 11:16:14;;;;;;;75.83;72.10;;;32.10;42.40;;;;;;5035323;28;20025;-79
2022/07/31 11:18:40;;;;;;;71.10;67.40;;;32.30;41.70;;;;;;5035023;28;20032;-79
2022/07/31 11:21:07;;;;;;;62.00;58.88;;;32.20;40.60;;;;;;5035059;28;20020;-79
2022/07/31 11:23:34;;;;;;;69.95;66.43;;;32.00;41.30;;;;;;5051380;28;20041;-79
2022/07/31 11:26:02;;;;;;;77.63;73.80;;;32.20;41.20;;;;;;5034742;28;20032;-79
2022/07/31 11:28:29;;;;;;;79.55;75.72;;;32.30;41.70;;;;;;5035116;28;20048;-79
2022/07/31 11:30:58;;;;;;;87.00;82.70;;;32.70;41.20;;;;;;5034103;28;20040;-80
2022/07/31 11:33:28;;;;;;;95.65;90.93;;;32.70;40.00;;;;;;5051253;28;20040;-79
2022/07/31 11:36:13;;;;;;;1999.90;999.90;;;32.60;40.30;;;;;;5034796;28;20037;-79
2022/07/31 11:38:41;;;;;;;1042.03;540.03;;;32.90;40.70;;;;;;5037232;28;20029;-79
2022/07/31 11:41:08;;;;;;;1999.90;999.90;;;33.00;39.70;;;;;;5050999;28;20379;-79
2022/07/31 11:43:36;;;;;;;1999.90;999.90;;;33.10;39.30;;;;;;5030335;28;20510;-79
2022/07/31 11:46:02;;;;;;;80.57;76.63;;;33.30;38.90;;;;;;5010282;28;20044;-80
2022/07/31 11:48:31;;;;;;;1999.90;999.90;;;33.00;39.30;;;;;;5051077;28;20036;-79
2022/07/31 11:50:57;;;;;;;1999.90;999.90;;;33.30;39.40;;;;;;5051166;28;20021;-79
2022/07/31 11:53:23;;;;;;;1999.90;999.90;;;33.50;38.40;;;;;;5051122;28;20029;-79
2022/07/31 11:55:54;;;;;;;1999.90;999.90;;;33.60;38.50;;;;;;5050629;28;20044;-79
2022/07/31 11:58:21;;;;;;;1999.90;999.90;;;33.50;37.00;;;;;;5034360;28;20037;-79
2022/07/31 12:00:49;;;;;;;1519.25;768.30;;;32.90;38.40;;;;;;5033371;28;20033;-79
2022/07/31 12:03:18;;;;;;;1999.90;999.90;;;32.80;38.70;;;;;;5033902;28;20419;-79
2022/07/31 12:05:46;;;;;;;84.80;80.65;;;33.10;39.00;;;;;;5050721;28;20036;-79
2022/07/31 12:08:12;;;;;;;1999.90;999.90;;;33.10;38.80;;;;;;5050568;28;20040;-79
2022/07/31 12:10:38;;;;;;;1999.90;999.90;;;33.30;38.70;;;;;;5050554;28;20029;-79
2022/07/31 12:13:08;;;;;;;80.13;76.22;;;33.20;37.80;;;;;;5033705;28;20048;-79
2022/07/31 12:15:35;;;;;;;1512.53;761.88;;;33.00;38.90;;;;;;5049663;28;20033;-79
2022/07/31 12:18:02;;;;;;;1999.90;999.90;;;33.00;38.50;;;;;;5050244;28;20033;-79
2022/07/31 12:20:29;;;;;;;1999.90;999.90;;;33.20;38.20;;;;;;5050423;28;20024;-79
2022/07/31 12:23:02;;;;;;;1999.90;999.90;;;33.50;37.60;;;;;;5050348;28;20029;-79
2022/07/31 12:25:39;;;;;;;1999.90;999.90;;;33.60;37.20;;;;;;5050231;28;20498;-79
2022/07/31 12:28:07;;;;;;;1999.90;999.90;;;33.70;37.30;;;;;;5050158;28;20036;-79
2022/07/31 12:30:33;;;;;;;1999.90;999.90;;;33.90;36.60;;;;;;5032656;28;20021;-79